createdAt,value
2022-10-30T00:01:34.519Z,6.13
2022-10-30T00:04:00.938Z,5.72
2022-10-30T00:06:27.430Z,4.90
2022-10-30T00:08:53.880Z,5.80
2022-10-30T00:11:20.323Z,5.65
2022-10-30T00:13:46.745Z,4.80
2022-10-30T00:16:13.216Z,5.28
2022-10-30T00:18:39.895Z,4.57
2022-10-30T00:21:11.792Z,3.95
2022-10-30T00:23:38.518Z,4.13
2022-10-30T00:26:07.067Z,4.25
2022-10-30T00:28:33.722Z,4.05
2022-10-30T00:31:02.609Z,3.88
2022-10-30T00:33:29.610Z,3.38
2022-10-30T00:35:57.193Z,2.90
2022-10-30T00:38:23.729Z,3.75
2022-10-30T00:40:50.335Z,3.38
2022-10-30T00:43:37.122Z,3.50
2022-10-30T00:46:27.817Z,4.28
2022-10-30T00:49:10.287Z,3.22
2022-10-30T00:51:39.219Z,3.90
2022-10-30T00:54:06.761Z,3.30
2022-10-30T00:56:34.284Z,4.07
2022-10-30T00:59:13.470Z,2.90
2022-10-30T01:01:43.305Z,3.55
2022-10-30T01:04:10.996Z,3.88
2022-10-30T01:06:41.748Z,3.58
2022-10-30T01:09:08.298Z,4.18
2022-10-30T01:11:34.820Z,3.60
2022-10-30T01:14:06.362Z,3.10
2022-10-30T01:17:02.158Z,3.10
2022-10-30T01:22:36.922Z,3.13
2022-10-30T01:25:39.811Z,3.50
2022-10-30T01:28:46.179Z,3.50
2022-10-30T01:31:37.520Z,3.58
2022-10-30T01:34:19.349Z,3.83
2022-10-30T01:36:49.768Z,3.30
2022-10-30T01:39:40.959Z,4.00
2022-10-30T01:42:38.519Z,3.50
2022-10-30T01:45:08.509Z,3.88
2022-10-30T01:48:02.388Z,2.90
2022-10-30T01:51:01.255Z,3.13
2022-10-30T01:53:51.719Z,3.17
2022-10-30T01:56:49.683Z,3.17
2022-10-30T01:59:19.087Z,3.08
2022-10-30T02:01:46.313Z,3.15
2022-10-30T02:04:13.970Z,3.85
2022-10-30T02:06:41.157Z,3.70
2022-10-30T02:09:09.322Z,3.83
2022-10-30T02:11:41.671Z,3.15
2022-10-30T02:14:09.547Z,3.58
2022-10-30T02:16:42.023Z,3.53
2022-10-30T02:19:08.482Z,2.83
2022-10-30T02:21:35.090Z,2.95
2022-10-30T02:24:01.647Z,2.97
2022-10-30T02:26:28.141Z,2.95
2022-10-30T02:28:54.656Z,2.83
2022-10-30T02:31:21.092Z,2.90
2022-10-30T02:33:48.035Z,3.67
2022-10-30T02:36:14.769Z,4.63
2022-10-30T02:38:42.384Z,4.70
2022-10-30T02:41:09.010Z,3.22
2022-10-30T02:43:36.370Z,3.83
2022-10-30T02:46:02.902Z,3.05
2022-10-30T02:48:33.024Z,3.28
2022-10-30T02:51:00.665Z,3.35
2022-10-30T02:53:28.852Z,3.55
2022-10-30T02:55:55.619Z,3.25
2022-10-30T02:58:22.743Z,3.25
2022-10-30T03:00:49.341Z,2.90
2022-10-30T03:03:18.647Z,3.88
2022-10-30T03:05:48.096Z,2.90
2022-10-30T03:08:15.678Z,3.03
2022-10-30T03:10:42.133Z,3.67
2022-10-30T03:13:08.592Z,3.55
2022-10-30T03:15:35.541Z,3.72
2022-10-30T03:18:01.973Z,3.13
2022-10-30T03:20:28.485Z,3.75
2022-10-30T03:22:54.948Z,4.38
2022-10-30T03:25:21.423Z,3.65
2022-10-30T03:27:52.465Z,3.90
2022-10-30T03:30:18.939Z,4.53
2022-10-30T03:32:45.413Z,2.92
2022-10-30T03:35:12.084Z,3.88
2022-10-30T03:37:38.509Z,4.28
2022-10-30T03:40:05.477Z,2.80
2022-10-30T03:42:33.622Z,2.95
2022-10-30T03:45:00.107Z,3.03
2022-10-30T03:47:27.999Z,3.28
2022-10-30T03:49:54.838Z,3.22
2022-10-30T03:52:21.294Z,3.30
2022-10-30T03:54:49.121Z,3.33
2022-10-30T03:57:17.726Z,2.90
2022-10-30T04:00:03.571Z,3.42
2022-10-30T04:02:51.489Z,3.83
2022-10-30T04:05:20.075Z,3.72
2022-10-30T04:07:47.807Z,3.30
2022-10-30T04:10:19.312Z,4.65
2022-10-30T04:12:49.500Z,3.25
2022-10-30T04:15:16.172Z,4.00
2022-10-30T04:17:50.640Z,5.38
2022-10-30T04:20:21.425Z,3.47
2022-10-30T04:22:47.999Z,3.73
2022-10-30T04:25:19.261Z,3.78
2022-10-30T04:27:49.395Z,3.97
2022-10-30T04:30:17.498Z,4.40
2022-10-30T04:32:51.752Z,3.65
2022-10-30T04:35:20.671Z,4.38
2022-10-30T04:37:53.582Z,3.95
2022-10-30T04:40:20.983Z,5.15
2022-10-30T04:42:54.854Z,3.95
2022-10-30T04:45:22.446Z,4.15
2022-10-30T04:47:48.986Z,4.45
2022-10-30T04:50:16.982Z,4.63
2022-10-30T04:52:43.397Z,4.55
2022-10-30T04:55:10.927Z,4.32
2022-10-30T04:57:38.483Z,4.60
2022-10-30T05:00:07.896Z,4.47
2022-10-30T05:02:36.296Z,3.78
2022-10-30T05:05:03.791Z,3.92
2022-10-30T05:07:31.581Z,4.65
2022-10-30T05:09:58.172Z,4.90
2022-10-30T05:12:25.840Z,4.97
2022-10-30T05:14:54.099Z,4.45
2022-10-30T05:17:20.837Z,5.22
2022-10-30T05:19:48.471Z,5.07
2022-10-30T05:22:15.533Z,4.15
2022-10-30T05:24:42.670Z,4.38
2022-10-30T05:27:09.112Z,4.32
2022-10-30T05:29:35.607Z,4.72
2022-10-30T05:32:02.181Z,4.30
2022-10-30T05:34:40.316Z,5.10
2022-10-30T05:37:06.812Z,4.47
2022-10-30T05:39:33.273Z,4.35
2022-10-30T05:41:59.780Z,4.75
2022-10-30T05:44:59.179Z,5.18
2022-10-30T05:47:25.399Z,4.97
2022-10-30T05:49:54.698Z,4.28
2022-10-30T05:52:24.292Z,4.80
2022-10-30T05:54:51.638Z,5.28
2022-10-30T05:57:28.706Z,4.68
2022-10-30T05:59:55.859Z,4.43
2022-10-30T06:02:22.400Z,5.05
2022-10-30T06:04:48.888Z,4.80
2022-10-30T06:07:17.117Z,5.30
2022-10-30T06:09:43.713Z,4.65
2022-10-30T06:12:22.932Z,4.53
2022-10-30T06:15:09.631Z,4.60
2022-10-30T06:17:37.115Z,4.55
2022-10-30T06:20:26.583Z,4.47
2022-10-30T06:23:18.353Z,4.82
2022-10-30T06:25:51.735Z,4.30
2022-10-30T06:28:22.899Z,4.18
2022-10-30T06:30:53.210Z,4.93
2022-10-30T06:33:19.979Z,5.90
2022-10-30T06:35:49.928Z,4.00
2022-10-30T06:38:17.730Z,3.83
2022-10-30T06:40:45.546Z,3.97
2022-10-30T06:43:39.006Z,4.22
2022-10-30T06:46:17.329Z,3.38
2022-10-30T06:48:44.532Z,3.55
2022-10-30T06:51:13.570Z,4.00
2022-10-30T06:53:40.237Z,3.67
2022-10-30T06:56:25.122Z,3.33
2022-10-30T06:59:17.703Z,3.25
2022-10-30T07:02:11.296Z,3.42
2022-10-30T07:04:54.361Z,3.10
2022-10-30T07:07:20.822Z,3.00
2022-10-30T07:09:47.231Z,3.47
2022-10-30T07:12:15.689Z,4.07
2022-10-30T07:15:08.464Z,3.28
2022-10-30T07:17:40.997Z,3.28
2022-10-30T07:20:19.656Z,3.55
2022-10-30T07:22:46.103Z,3.35
2022-10-30T07:25:12.997Z,3.90
2022-10-30T07:27:51.054Z,3.22
2022-10-30T07:30:33.136Z,2.78
2022-10-30T07:33:28.610Z,3.22
2022-10-30T07:36:03.455Z,3.05
2022-10-30T07:38:43.187Z,3.00
2022-10-30T07:41:32.799Z,3.00
2022-10-30T07:44:17.749Z,2.80
2022-10-30T07:46:54.644Z,3.10
2022-10-30T07:49:28.765Z,3.33
2022-10-30T07:52:01.775Z,3.78
2022-10-30T07:54:28.342Z,3.85
2022-10-30T07:56:57.301Z,3.45
2022-10-30T07:59:57.005Z,3.60
2022-10-30T08:02:41.472Z,3.60
2022-10-30T08:05:21.019Z,3.88
2022-10-30T08:08:04.968Z,3.60
2022-10-30T08:10:31.649Z,3.83
2022-10-30T08:12:58.159Z,3.17
2022-10-30T08:15:24.757Z,4.03
2022-10-30T08:17:51.983Z,3.08
2022-10-30T08:20:22.692Z,4.80
2022-10-30T08:22:52.409Z,4.63
2022-10-30T08:25:26.053Z,3.33
2022-10-30T08:27:59.530Z,3.65
2022-10-30T08:30:32.316Z,3.75
2022-10-30T08:33:00.276Z,3.60
2022-10-30T08:36:01.908Z,3.97
2022-10-30T08:38:29.480Z,3.38
2022-10-30T08:41:10.438Z,3.22
2022-10-30T08:43:43.845Z,3.33
2022-10-30T08:46:10.329Z,3.70
2022-10-30T08:48:36.823Z,3.30
2022-10-30T08:51:03.639Z,3.35
2022-10-30T08:53:37.101Z,3.25
2022-10-30T08:56:08.901Z,3.10
2022-10-30T08:58:55.951Z,3.05
2022-10-30T09:01:22.802Z,3.05
2022-10-30T09:04:15.446Z,3.60
2022-10-30T09:06:45.044Z,3.10
2022-10-30T09:09:30.199Z,3.53
2022-10-30T09:12:00.687Z,2.70
2022-10-30T09:14:27.586Z,3.33
2022-10-30T09:16:55.773Z,3.53
2022-10-30T09:19:23.028Z,3.47
2022-10-30T09:21:49.580Z,2.63
2022-10-30T09:24:16.441Z,3.95
2022-10-30T09:26:42.935Z,3.13
2022-10-30T09:29:29.641Z,2.42
2022-10-30T09:32:05.939Z,2.30
2022-10-30T09:34:34.619Z,2.80
2022-10-30T09:37:13.446Z,3.47
2022-10-30T09:39:44.045Z,3.93
2022-10-30T09:42:55.162Z,3.08
2022-10-30T09:45:30.478Z,2.58
2022-10-30T09:48:36.473Z,2.67
2022-10-30T09:51:15.508Z,3.20
2022-10-30T09:54:18.569Z,2.63
2022-10-30T09:57:02.250Z,3.38
2022-10-30T10:00:03.644Z,3.47
2022-10-30T10:02:35.635Z,2.53
2022-10-30T10:05:17.302Z,2.55
2022-10-30T10:08:28.439Z,2.97
2022-10-30T10:11:29.539Z,2.73
2022-10-30T10:14:04.910Z,2.40
2022-10-30T10:16:34.857Z,3.00
2022-10-30T10:19:13.856Z,2.28
2022-10-30T10:21:45.335Z,2.60
2022-10-30T10:27:24.268Z,3.33
2022-10-30T10:29:59.533Z,3.03
2022-10-30T10:32:28.921Z,3.33
2022-10-30T10:35:16.016Z,3.20
2022-10-30T10:37:52.527Z,2.72
2022-10-30T10:40:26.465Z,2.97
2022-10-30T10:43:01.893Z,2.47
2022-10-30T10:46:10.441Z,2.95
2022-10-30T10:49:05.987Z,3.28
2022-10-30T10:51:41.030Z,2.30
2022-10-30T10:54:23.756Z,3.15
2022-10-30T10:56:51.823Z,2.72
2022-10-30T10:59:38.556Z,3.20
2022-10-30T11:02:08.242Z,2.10
2022-10-30T11:04:40.291Z,1.92
2022-10-30T11:07:22.699Z,1.95
2022-10-30T11:09:57.494Z,1.77
2022-10-30T11:12:33.810Z,1.75
2022-10-30T11:15:17.802Z,1.35
2022-10-30T11:20:21.947Z,1.58
2022-10-30T11:22:51.511Z,1.35
2022-10-30T11:25:19.995Z,2.25
2022-10-30T11:28:05.756Z,1.30
2022-10-30T11:30:32.662Z,1.75
2022-10-30T11:33:19.570Z,1.52
2022-10-30T11:35:46.012Z,1.20
2022-10-30T11:38:18.516Z,1.48
2022-10-30T11:40:52.082Z,1.92
2022-10-30T11:43:24.070Z,1.55
2022-10-30T11:45:51.556Z,1.08
2022-10-30T11:48:29.661Z,1.52
2022-10-30T11:51:01.260Z,1.05
2022-10-30T11:53:37.077Z,1.10
2022-10-30T11:56:11.341Z,1.80
2022-10-30T11:58:48.192Z,1.40
2022-10-30T12:01:22.780Z,1.77
2022-10-30T12:03:50.071Z,2.97
2022-10-30T12:06:20.194Z,1.27
2022-10-30T12:09:12.539Z,1.30
2022-10-30T12:11:41.140Z,1.00
2022-10-30T12:14:17.554Z,1.40
2022-10-30T12:16:47.177Z,1.30
2022-10-30T12:19:15.245Z,1.35
2022-10-30T12:21:49.444Z,1.27
2022-10-30T12:24:36.866Z,1.40
2022-10-30T12:27:10.258Z,1.00
2022-10-30T12:30:07.431Z,1.52
2022-10-30T12:32:44.067Z,1.73
2022-10-30T12:35:25.598Z,1.83
2022-10-30T12:37:53.753Z,1.20
2022-10-30T12:40:25.444Z,1.58
2022-10-30T12:43:00.132Z,1.02
2022-10-30T12:45:33.505Z,1.90
2022-10-30T12:48:16.614Z,1.30
2022-10-30T12:51:23.937Z,1.30
2022-10-30T12:53:57.395Z,1.55
2022-10-30T12:56:33.714Z,1.70
2022-10-30T12:59:21.101Z,1.40
2022-10-30T13:02:10.502Z,1.40
2022-10-30T13:04:42.088Z,1.88
2022-10-30T13:10:00.493Z,1.60
2022-10-30T13:12:38.010Z,1.40
2022-10-30T13:15:38.031Z,1.42
2022-10-30T13:18:34.002Z,1.80
2022-10-30T13:21:00.396Z,2.15
2022-10-30T13:24:00.605Z,1.45
2022-10-30T13:26:53.402Z,1.40
2022-10-30T13:29:31.785Z,1.48
2022-10-30T13:32:32.199Z,1.30
2022-10-30T13:35:33.386Z,1.35
2022-10-30T13:38:13.148Z,1.45
2022-10-30T13:40:44.962Z,1.50
2022-10-30T13:43:43.419Z,1.70
2022-10-30T13:46:17.290Z,1.92
2022-10-30T13:49:05.760Z,1.52
2022-10-30T13:52:01.225Z,1.77
2022-10-30T13:54:38.614Z,1.73
2022-10-30T13:57:26.576Z,1.73
2022-10-30T14:00:04.073Z,1.80
2022-10-30T14:03:30.052Z,1.70
2022-10-30T14:06:12.131Z,1.02
2022-10-30T14:09:15.146Z,1.60
2022-10-30T14:11:41.876Z,1.60
2022-10-30T14:14:23.666Z,1.60
2022-10-30T14:17:14.581Z,1.65
2022-10-30T14:20:10.617Z,1.52
2022-10-30T14:22:40.451Z,1.38
2022-10-30T14:25:15.013Z,1.40
2022-10-30T14:27:41.554Z,1.50
2022-10-30T14:30:18.856Z,1.50
2022-10-30T14:32:51.042Z,1.67
2022-10-30T14:35:30.127Z,1.40
2022-10-30T14:37:57.286Z,1.45
2022-10-30T14:40:32.084Z,1.55
2022-10-30T14:43:08.279Z,1.13
2022-10-30T14:45:50.619Z,1.20
2022-10-30T14:48:44.951Z,1.35
2022-10-30T14:51:35.700Z,1.38
2022-10-30T14:54:27.384Z,1.90
2022-10-30T14:56:53.975Z,1.65
2022-10-30T14:59:23.865Z,1.65
2022-10-30T15:02:12.420Z,2.22
2022-10-30T15:05:10.028Z,1.83
2022-10-30T15:07:41.708Z,2.17
2022-10-30T15:10:19.896Z,2.28
2022-10-30T15:13:04.976Z,1.77
2022-10-30T15:15:32.033Z,2.10
2022-10-30T15:18:07.329Z,2.08
2022-10-30T15:20:35.039Z,2.10
2022-10-30T15:23:09.891Z,1.67
2022-10-30T15:25:45.671Z,1.85
2022-10-30T15:31:20.394Z,1.67
2022-10-30T15:33:47.074Z,2.30
2022-10-30T15:36:18.580Z,2.65
2022-10-30T15:41:11.695Z,2.85
2022-10-30T15:43:42.173Z,1.85
2022-10-30T15:46:10.882Z,2.25
2022-10-30T15:48:41.061Z,1.73
2022-10-30T15:51:11.795Z,1.55
2022-10-30T15:53:44.992Z,1.27
2022-10-30T15:56:19.891Z,1.65
2022-10-30T15:58:52.562Z,1.67
2022-10-30T16:01:46.547Z,1.27
2022-10-30T16:04:19.514Z,1.90
2022-10-30T16:07:25.335Z,2.17
2022-10-30T16:09:58.733Z,2.95
2022-10-30T16:12:33.782Z,1.80
2022-10-30T16:15:24.202Z,1.45
2022-10-30T16:18:15.280Z,1.55
2022-10-30T16:20:44.909Z,2.10
2022-10-30T16:23:12.464Z,2.13
2022-10-30T16:25:45.884Z,2.03
2022-10-30T16:28:34.719Z,2.00
2022-10-30T16:31:04.531Z,1.95
2022-10-30T16:33:33.799Z,2.35
2022-10-30T16:36:03.363Z,2.50
2022-10-30T16:38:34.509Z,2.03
2022-10-30T16:41:01.290Z,1.90
2022-10-30T16:43:33.269Z,2.22
2022-10-30T16:46:15.075Z,2.10
2022-10-30T16:49:04.264Z,2.28
2022-10-30T16:51:31.108Z,2.28
2022-10-30T16:53:57.610Z,2.55
2022-10-30T16:56:27.334Z,2.20
2022-10-30T16:58:58.307Z,2.15
2022-10-30T17:01:28.151Z,2.03
2022-10-30T17:03:56.222Z,2.03
2022-10-30T17:06:37.671Z,3.15
2022-10-30T17:09:10.572Z,2.25
2022-10-30T17:11:39.587Z,2.65
2022-10-30T17:14:19.762Z,2.30
2022-10-30T17:16:57.693Z,2.20
2022-10-30T17:19:30.173Z,2.35
2022-10-30T17:22:02.758Z,2.10
2022-10-30T17:24:35.070Z,2.22
2022-10-30T17:27:04.503Z,1.83
2022-10-30T17:29:36.809Z,2.40
2022-10-30T17:32:05.052Z,3.03
2022-10-30T17:34:37.135Z,2.45
2022-10-30T17:37:03.735Z,2.80
2022-10-30T17:39:30.193Z,2.47
2022-10-30T17:41:57.748Z,2.97
2022-10-30T17:44:26.054Z,2.60
2022-10-30T17:46:52.729Z,2.58
2022-10-30T17:49:30.197Z,2.47
2022-10-30T17:51:57.299Z,2.40
2022-10-30T17:54:24.724Z,2.50
2022-10-30T17:56:51.333Z,2.50
2022-10-30T17:59:17.868Z,2.22
2022-10-30T18:01:44.718Z,2.20
2022-10-30T18:04:19.694Z,2.10
2022-10-30T18:06:47.636Z,3.00
2022-10-30T18:09:14.078Z,2.47
2022-10-30T18:11:40.606Z,2.90
2022-10-30T18:14:07.114Z,3.50
2022-10-30T18:16:33.592Z,2.55
2022-10-30T18:19:00.107Z,3.75
2022-10-30T18:21:26.586Z,2.80
2022-10-30T18:23:54.641Z,2.97
2022-10-30T18:26:26.173Z,2.95
2022-10-30T18:28:53.376Z,2.95
2022-10-30T18:31:22.541Z,2.30
2022-10-30T18:33:49.171Z,3.63
2022-10-30T18:36:18.655Z,2.90
2022-10-30T18:38:45.349Z,2.58
2022-10-30T18:41:20.536Z,3.58
2022-10-30T18:43:47.429Z,2.95
2022-10-30T18:46:15.258Z,2.80
2022-10-30T18:48:41.753Z,3.25
2022-10-30T18:51:27.874Z,2.70
2022-10-30T18:53:54.878Z,3.53
2022-10-30T18:56:23.929Z,2.78
2022-10-30T18:58:54.859Z,3.20
2022-10-30T19:01:25.891Z,4.47
2022-10-30T19:03:52.724Z,2.85
2022-10-30T19:06:22.180Z,3.85
2022-10-30T19:08:49.155Z,3.50
2022-10-30T19:11:21.990Z,3.65
2022-10-30T19:13:51.444Z,3.67
2022-10-30T19:16:19.197Z,4.53
2022-10-30T19:18:47.202Z,4.40
2022-10-30T19:21:22.005Z,4.25
2022-10-30T19:23:48.923Z,6.53
2022-10-30T19:26:15.615Z,4.00
2022-10-30T19:28:42.485Z,3.40
2022-10-30T19:31:13.343Z,3.25
2022-10-30T19:33:39.838Z,3.35
2022-10-30T19:36:06.551Z,3.40
2022-10-30T19:38:33.450Z,3.22
2022-10-30T19:41:00.634Z,2.90
2022-10-30T19:43:27.277Z,2.95
2022-10-30T19:45:55.561Z,2.95
2022-10-30T19:48:40.682Z,4.03
2022-10-30T19:51:09.262Z,4.03
2022-10-30T19:53:35.717Z,2.58
2022-10-30T19:56:02.169Z,3.35
2022-10-30T19:58:28.634Z,2.75
2022-10-30T20:00:55.190Z,3.90
2022-10-30T20:03:21.688Z,4.13
2022-10-30T20:05:49.841Z,2.85
2022-10-30T20:08:24.327Z,3.20
2022-10-30T20:10:53.435Z,3.20
2022-10-30T20:13:20.990Z,3.17
2022-10-30T20:15:47.425Z,3.75
2022-10-30T20:18:19.722Z,3.17
2022-10-30T20:20:49.230Z,3.78
2022-10-30T20:23:16.134Z,3.83
2022-10-30T20:25:43.610Z,3.58
2022-10-30T20:28:17.213Z,3.80
2022-10-30T20:30:43.787Z,5.22
2022-10-30T20:33:13.013Z,3.97
2022-10-30T20:35:39.647Z,2.92
2022-10-30T20:38:06.276Z,3.45
2022-10-30T20:40:32.707Z,4.43
2022-10-30T20:43:02.931Z,4.03
2022-10-30T20:45:29.815Z,4.23
2022-10-30T20:47:56.356Z,3.78
2022-10-30T20:50:23.010Z,3.88
2022-10-30T20:52:49.421Z,3.65
2022-10-30T20:55:15.960Z,4.18
2022-10-30T20:57:42.497Z,4.63
2022-10-30T21:00:11.784Z,3.78
2022-10-30T21:02:38.493Z,3.40
2022-10-30T21:05:12.083Z,4.05
2022-10-30T21:07:50.081Z,4.00
2022-10-30T21:10:16.587Z,4.35
2022-10-30T21:12:43.252Z,3.95
2022-10-30T21:15:09.947Z,3.58
2022-10-30T21:17:36.497Z,4.15
2022-10-30T21:20:03.163Z,3.63
2022-10-30T21:22:29.623Z,3.65
2022-10-30T21:24:56.048Z,3.20
2022-10-30T21:27:22.695Z,3.58
2022-10-30T21:29:49.102Z,2.95
2022-10-30T21:32:15.530Z,2.53
2022-10-30T21:34:41.991Z,3.95
2022-10-30T21:37:08.470Z,3.85
2022-10-30T21:39:34.879Z,3.40
2022-10-30T21:42:01.364Z,3.90
2022-10-30T21:44:27.840Z,3.03
2022-10-30T21:46:54.344Z,3.33
2022-10-30T21:49:20.933Z,3.03
2022-10-30T21:51:47.456Z,3.92
2022-10-30T21:54:15.248Z,3.60
2022-10-30T21:56:41.700Z,3.20
2022-10-30T21:59:09.909Z,3.70
2022-10-30T22:01:38.662Z,3.97
2022-10-30T22:04:07.520Z,3.63
2022-10-30T22:06:34.118Z,3.58
2022-10-30T22:09:00.580Z,3.25
2022-10-30T22:11:28.495Z,3.50
2022-10-30T22:14:00.369Z,4.90
2022-10-30T22:16:28.764Z,3.45
2022-10-30T22:18:56.297Z,3.55
2022-10-30T22:21:23.158Z,3.42
2022-10-30T22:23:49.616Z,2.90
2022-10-30T22:26:19.107Z,4.55
2022-10-30T22:28:46.077Z,3.10
2022-10-30T22:31:19.750Z,3.63
2022-10-30T22:33:46.289Z,3.03
2022-10-30T22:36:16.652Z,3.70
2022-10-30T22:38:43.347Z,3.72
2022-10-30T22:41:12.832Z,3.53
2022-10-30T22:43:41.132Z,3.38
2022-10-30T22:46:07.656Z,3.40
2022-10-30T22:48:34.397Z,3.72
2022-10-30T22:51:03.023Z,3.22
2022-10-30T22:53:30.774Z,3.90
2022-10-30T22:55:57.257Z,3.42
2022-10-30T22:58:27.864Z,3.38
2022-10-30T23:00:54.382Z,3.20
2022-10-30T23:03:20.847Z,3.80
2022-10-30T23:05:58.625Z,3.75
2022-10-30T23:08:26.310Z,2.90
2022-10-30T23:10:53.535Z,4.07
2022-10-30T23:15:54.280Z,3.97
2022-10-30T23:18:22.746Z,3.85
2022-10-30T23:20:49.169Z,3.33
2022-10-30T23:23:15.670Z,3.65
2022-10-30T23:25:42.299Z,4.60
2022-10-30T23:28:10.893Z,4.55
2022-10-30T23:30:40.738Z,3.10
2022-10-30T23:33:07.208Z,5.28
2022-10-30T23:35:33.634Z,3.83
2022-10-30T23:38:00.121Z,4.10
2022-10-30T23:40:26.562Z,4.45
2022-10-30T23:42:54.466Z,3.15
2022-10-30T23:45:22.281Z,3.72
2022-10-30T23:47:49.261Z,3.95
2022-10-30T23:50:16.518Z,3.22
2022-10-30T23:52:43.034Z,3.47
2022-10-30T23:55:09.728Z,3.92
2022-10-30T23:57:36.168Z,4.38
